Aeroporto :
LOGIN :

Iscrizione | Disclaimer

   EN    FR    IT 

 










Sommario :    VFR   VFR Marginale   IFR   IFR Intensivo   IFR Molto Intensivo
Visibilità : 
Base nubi : 
>= 8 km
>= 3000ft
5 / 8 km
1000 / 3000 ft
1500m / 5 km
500 / 1000 ft
800 / 1500m
200 / 500 ft
< 800m
< 200 ft
Simboli :   Temporali  Nebbia  Neve Forte  Precipitazioni Forti  Vento > 20 kt
SIGMETs :   Varie  Temporali  Ghiacco  Turbolenza  Onda orograficha  Ceneri Vulcaniche






- Altitudine del aeroporto : 424 ft
- Codice IATA : QGY


LHPR - Györ Per

ULTIMO METAR :
  • 220915Z AUTO 32013KT 300V360 9999 FEW048 //////CB 18/15 Q1014 TEMPO 4000 SHRA TSRA

METARs OBSOLETI :
  • 220845Z AUTO 31011KT 280V340 9999 FEW047 //////CB 19/16 Q1014 TEMPO 4000 SHRA TSRA
  • 220815Z AUTO 32013KT 290V350 9999 FEW023 //////TCU 19/16 Q1014 RESHRA TEMPO 4000 SHRA TSRA SCT030CB BKN200
  • 220745Z AUTO 31009KT 280V350 9999 SHRA VCTS FEW031 BKN045 BKN090 //////CB 19/17 Q1013 TEMPO CAVOK
  • 220715Z AUTO 32010KT 280V350 9999 TSRA FEW030 BKN072 //////CB 19/17 Q1014 BECMG SHRA -TSRA
  • 220645Z AUTO 32011KT 9999 -TSRA SCT054 //////CB 21/17 Q1014 RESHRA TEMPO 22016G32KT 3500 TSRA
  • 220615Z AUTO 33011KT 300V030 9999 -SHRA BKN038 //////CB 21/17 Q1013 RESHRA TEMPO 22016G32KT 3500 TSRA
  • 220545Z AUTO 27003KT 200V330 9999 -SHRA BKN035 //////CB 21/17 Q1013 BECMG 22016G32KT 3500 TSRA
  • 220515Z AUTO 30007KT 9999 FEW035 //////CB 20/18 Q1012 NOSIG

TAF TAF LHPR
Valido dal 22 a 09 ore il 22 a 18 ore UTC


220815Z 2209/2218 33012KT CAVOK
TEMPO 2209/2212 VRB20G30KT 2000 +SHRA TSRAGR SCT020 SCT040CB BKN200
BECMG 2214/2218 36007KT



MetMap, La meteo Aeronautica in un colpo d'occhio ! - Copyright ORBIFLY Dicembre 2007 - Disclaimer

ORBIFLY MET'MAP TEAM :

Programmazione e sviluppo : Alexandra Zaïnal
Concezione : Baudouin d'Aumeries
Supporto tecnico e logistico : Manuel Goepfert
Aiuto : Marc-Olivier Méhu
Aiuto per la traduzione : Arnaldo La Scala




FONTI E CREDITI :

   NOAA